sensor_id;sensor_type;location;lat;lon;timestamp;P1;durP1;ratioP1;P2;durP2;ratioP2
4857;SDS011;58975;51.978;8.472;2022-09-16T00:02:29;1.88;;;0.73;;
4857;SDS011;58975;51.978;8.472;2022-09-16T00:07:26;4.63;;;0.85;;
4857;SDS011;58975;51.978;8.472;2022-09-16T00:12:24;3.03;;;0.80;;
4857;SDS011;58975;51.978;8.472;2022-09-16T00:17:21;3.00;;;1.00;;
4857;SDS011;58975;51.978;8.472;2022-09-16T00:22:18;1.45;;;0.68;;
4857;SDS011;58975;51.978;8.472;2022-09-16T00:27:14;1.75;;;0.75;;
4857;SDS011;58975;51.978;8.472;2022-09-16T00:32:11;4.63;;;1.13;;
4857;SDS011;58975;51.978;8.472;2022-09-16T00:37:07;2.50;;;0.95;;
4857;SDS011;58975;51.978;8.472;2022-09-16T00:42:05;7.40;;;0.80;;
4857;SDS011;58975;51.978;8.472;2022-09-16T00:47:01;3.55;;;0.73;;
4857;SDS011;58975;51.978;8.472;2022-09-16T00:52:01;3.25;;;1.00;;
4857;SDS011;58975;51.978;8.472;2022-09-16T00:57:00;5.25;;;1.42;;
4857;SDS011;58975;51.978;8.472;2022-09-16T01:01:58;5.20;;;1.53;;
4857;SDS011;58975;51.978;8.472;2022-09-16T01:07:01;3.00;;;0.75;;
4857;SDS011;58975;51.978;8.472;2022-09-16T01:11:57;4.07;;;1.30;;
4857;SDS011;58975;51.978;8.472;2022-09-16T01:17:02;2.60;;;0.70;;
4857;SDS011;58975;51.978;8.472;2022-09-16T01:32:31;3.92;;;0.90;;
4857;SDS011;58975;51.978;8.472;2022-09-16T01:37:57;7.13;;;0.65;;
4857;SDS011;58975;51.978;8.472;2022-09-16T01:48:16;1.88;;;0.80;;
4857;SDS011;58975;51.978;8.472;2022-09-16T01:58:43;4.73;;;0.97;;
4857;SDS011;58975;51.978;8.472;2022-09-16T02:03:45;5.53;;;0.75;;
4857;SDS011;58975;51.978;8.472;2022-09-16T02:08:48;5.70;;;0.95;;
4857;SDS011;58975;51.978;8.472;2022-09-16T02:13:50;5.70;;;0.82;;
4857;SDS011;58975;51.978;8.472;2022-09-16T02:18:53;2.75;;;0.70;;
4857;SDS011;58975;51.978;8.472;2022-09-16T02:23:54;3.20;;;0.90;;
4857;SDS011;58975;51.978;8.472;2022-09-16T02:28:55;4.20;;;0.73;;
4857;SDS011;58975;51.978;8.472;2022-09-16T02:39:17;2.15;;;0.80;;
4857;SDS011;58975;51.978;8.472;2022-09-16T02:44:17;7.22;;;1.50;;
4857;SDS011;58975;51.978;8.472;2022-09-16T02:54:34;1.95;;;1.08;;
4857;SDS011;58975;51.978;8.472;2022-09-16T02:59:37;1.75;;;1.02;;
4857;SDS011;58975;51.978;8.472;2022-09-16T03:04:34;4.95;;;1.35;;
4857;SDS011;58975;51.978;8.472;2022-09-16T03:09:32;7.63;;;1.40;;
4857;SDS011;58975;51.978;8.472;2022-09-16T03:25:31;4.70;;;1.23;;
4857;SDS011;58975;51.978;8.472;2022-09-16T03:35:44;3.67;;;1.20;;
4857;SDS011;58975;51.978;8.472;2022-09-16T03:40:43;2.65;;;1.30;;
4857;SDS011;58975;51.978;8.472;2022-09-16T03:45:42;2.50;;;0.85;;
4857;SDS011;58975;51.978;8.472;2022-09-16T03:50:39;5.57;;;1.20;;
4857;SDS011;58975;51.978;8.472;2022-09-16T03:55:35;3.15;;;0.75;;
4857;SDS011;58975;51.978;8.472;2022-09-16T04:00:32;2.60;;;1.02;;
4857;SDS011;58975;51.978;8.472;2022-09-16T04:05:28;2.50;;;0.73;;
4857;SDS011;58975;51.978;8.472;2022-09-16T04:10:24;4.75;;;1.60;;
4857;SDS011;58975;51.978;8.472;2022-09-16T04:15:21;5.32;;;1.13;;
4857;SDS011;58975;51.978;8.472;2022-09-16T04:20:17;3.83;;;0.80;;
4857;SDS011;58975;51.978;8.472;2022-09-16T04:25:14;5.55;;;1.00;;
4857;SDS011;58975;51.978;8.472;2022-09-16T04:30:10;4.63;;;1.35;;
4857;SDS011;58975;51.978;8.472;2022-09-16T04:35:07;2.90;;;1.13;;
4857;SDS011;58975;51.978;8.472;2022-09-16T04:40:04;6.25;;;1.25;;
4857;SDS011;58975;51.978;8.472;2022-09-16T04:45:01;3.67;;;1.42;;
4857;SDS011;58975;51.978;8.472;2022-09-16T04:49:57;8.65;;;1.50;;
4857;SDS011;58975;51.978;8.472;2022-09-16T04:54:53;4.07;;;1.75;;
4857;SDS011;58975;51.978;8.472;2022-09-16T04:59:53;2.35;;;1.85;;
4857;SDS011;58975;51.978;8.472;2022-09-16T05:04:50;9.18;;;2.00;;
4857;SDS011;58975;51.978;8.472;2022-09-16T05:09:46;4.25;;;2.05;;
4857;SDS011;58975;51.978;8.472;2022-09-16T05:14:42;6.25;;;2.47;;
4857;SDS011;58975;51.978;8.472;2022-09-16T05:19:39;5.78;;;3.28;;
4857;SDS011;58975;51.978;8.472;2022-09-16T05:24:35;12.30;;;3.10;;
4857;SDS011;58975;51.978;8.472;2022-09-16T05:29:31;5.00;;;2.38;;
4857;SDS011;58975;51.978;8.472;2022-09-16T05:34:28;5.35;;;2.42;;
4857;SDS011;58975;51.978;8.472;2022-09-16T05:39:24;5.93;;;2.55;;
4857;SDS011;58975;51.978;8.472;2022-09-16T05:44:22;6.70;;;2.58;;
4857;SDS011;58975;51.978;8.472;2022-09-16T05:49:20;5.57;;;3.13;;
4857;SDS011;58975;51.978;8.472;2022-09-16T05:54:18;9.63;;;3.85;;
4857;SDS011;58975;51.978;8.472;2022-09-16T05:59:16;6.30;;;3.07;;
4857;SDS011;58975;51.978;8.472;2022-09-16T06:04:13;7.60;;;3.08;;
4857;SDS011;58975;51.978;8.472;2022-09-16T06:09:19;5.00;;;3.13;;
4857;SDS011;58975;51.978;8.472;2022-09-16T06:14:17;6.95;;;3.25;;
4857;SDS011;58975;51.978;8.472;2022-09-16T06:19:15;9.73;;;3.63;;
4857;SDS011;58975;51.978;8.472;2022-09-16T06:24:13;8.68;;;2.58;;
4857;SDS011;58975;51.978;8.472;2022-09-16T06:29:11;6.93;;;3.22;;
4857;SDS011;58975;51.978;8.472;2022-09-16T06:34:15;9.50;;;3.55;;
4857;SDS011;58975;51.978;8.472;2022-09-16T06:39:14;7.20;;;2.70;;
4857;SDS011;58975;51.978;8.472;2022-09-16T06:49:08;6.55;;;2.67;;
4857;SDS011;58975;51.978;8.472;2022-09-16T06:54:06;5.07;;;2.38;;
4857;SDS011;58975;51.978;8.472;2022-09-16T06:59:04;6.30;;;2.28;;
4857;SDS011;58975;51.978;8.472;2022-09-16T07:04:01;5.45;;;2.70;;
4857;SDS011;58975;51.978;8.472;2022-09-16T07:09:02;3.90;;;1.65;;
4857;SDS011;58975;51.978;8.472;2022-09-16T07:13:59;11.35;;;2.00;;
4857;SDS011;58975;51.978;8.472;2022-09-16T07:18:56;3.25;;;1.90;;
4857;SDS011;58975;51.978;8.472;2022-09-16T07:23:57;4.53;;;1.30;;
4857;SDS011;58975;51.978;8.472;2022-09-16T07:28:57;4.45;;;1.17;;
4857;SDS011;58975;51.978;8.472;2022-09-16T07:33:55;5.90;;;1.30;;
4857;SDS011;58975;51.978;8.472;2022-09-16T07:38:59;4.22;;;1.02;;
4857;SDS011;58975;51.978;8.472;2022-09-16T07:43:56;0.80;;;0.77;;
4857;SDS011;58975;51.978;8.472;2022-09-16T07:48:54;4.30;;;1.15;;
4857;SDS011;58975;51.978;8.472;2022-09-16T07:53:52;1.40;;;0.70;;
4857;SDS011;58975;51.978;8.472;2022-09-16T08:03:47;2.08;;;0.90;;
4857;SDS011;58975;51.978;8.472;2022-09-16T08:08:44;4.47;;;1.33;;
4857;SDS011;58975;51.978;8.472;2022-09-16T08:13:41;2.70;;;0.80;;
4857;SDS011;58975;51.978;8.472;2022-09-16T08:18:39;5.37;;;1.37;;
4857;SDS011;58975;51.978;8.472;2022-09-16T08:23:36;4.10;;;0.70;;
4857;SDS011;58975;51.978;8.472;2022-09-16T08:28:33;2.63;;;0.63;;
4857;SDS011;58975;51.978;8.472;2022-09-16T08:33:49;4.53;;;0.93;;
4857;SDS011;58975;51.978;8.472;2022-09-16T08:38:47;2.78;;;0.98;;
4857;SDS011;58975;51.978;8.472;2022-09-16T08:43:47;3.35;;;1.45;;
4857;SDS011;58975;51.978;8.472;2022-09-16T08:48:56;4.20;;;0.82;;
4857;SDS011;58975;51.978;8.472;2022-09-16T08:54:03;8.23;;;0.68;;
4857;SDS011;58975;51.978;8.472;2022-09-16T08:59:06;5.72;;;0.82;;
4857;SDS011;58975;51.978;8.472;2022-09-16T09:04:10;6.07;;;0.90;;
4857;SDS011;58975;51.978;8.472;2022-09-16T09:24:47;5.18;;;0.88;;
4857;SDS011;58975;51.978;8.472;2022-09-16T09:35:18;5.45;;;0.80;;
4857;SDS011;58975;51.978;8.472;2022-09-16T09:40:35;5.15;;;1.17;;
4857;SDS011;58975;51.978;8.472;2022-09-16T09:45:39;3.42;;;0.43;;
4857;SDS011;58975;51.978;8.472;2022-09-16T09:50:49;4.85;;;0.85;;
4857;SDS011;58975;51.978;8.472;2022-09-16T09:55:47;2.63;;;0.73;;
4857;SDS011;58975;51.978;8.472;2022-09-16T10:00:50;2.47;;;1.27;;
4857;SDS011;58975;51.978;8.472;2022-09-16T10:05:51;5.38;;;1.17;;
4857;SDS011;58975;51.978;8.472;2022-09-16T10:10:48;4.90;;;0.75;;
4857;SDS011;58975;51.978;8.472;2022-09-16T10:15:48;4.25;;;0.70;;
4857;SDS011;58975;51.978;8.472;2022-09-16T10:20:58;7.22;;;0.80;;
4857;SDS011;58975;51.978;8.472;2022-09-16T10:31:19;5.80;;;1.05;;
4857;SDS011;58975;51.978;8.472;2022-09-16T10:36:17;6.17;;;0.93;;
4857;SDS011;58975;51.978;8.472;2022-09-16T10:41:21;2.17;;;0.60;;
4857;SDS011;58975;51.978;8.472;2022-09-16T10:46:28;5.65;;;1.63;;
4857;SDS011;58975;51.978;8.472;2022-09-16T10:51:26;5.97;;;0.80;;
4857;SDS011;58975;51.978;8.472;2022-09-16T10:56:25;10.48;;;1.73;;
4857;SDS011;58975;51.978;8.472;2022-09-16T11:01:30;5.25;;;0.82;;
4857;SDS011;58975;51.978;8.472;2022-09-16T11:17:24;5.63;;;1.02;;
4857;SDS011;58975;51.978;8.472;2022-09-16T11:38:23;5.07;;;0.40;;
4857;SDS011;58975;51.978;8.472;2022-09-16T11:59:25;5.25;;;0.40;;
4857;SDS011;58975;51.978;8.472;2022-09-16T12:04:29;4.65;;;0.77;;
4857;SDS011;58975;51.978;8.472;2022-09-16T12:09:32;6.43;;;0.70;;
4857;SDS011;58975;51.978;8.472;2022-09-16T12:14:36;6.47;;;1.92;;
4857;SDS011;58975;51.978;8.472;2022-09-16T12:19:41;5.57;;;1.20;;
4857;SDS011;58975;51.978;8.472;2022-09-16T12:24:47;5.85;;;0.70;;
4857;SDS011;58975;51.978;8.472;2022-09-16T12:30:02;7.47;;;0.75;;
4857;SDS011;58975;51.978;8.472;2022-09-16T12:35:22;4.95;;;0.80;;
4857;SDS011;58975;51.978;8.472;2022-09-16T12:40:24;4.68;;;0.65;;
4857;SDS011;58975;51.978;8.472;2022-09-16T12:45:35;7.00;;;1.08;;
4857;SDS011;58975;51.978;8.472;2022-09-16T13:01:48;4.28;;;0.50;;
4857;SDS011;58975;51.978;8.472;2022-09-16T13:06:53;4.45;;;0.57;;
4857;SDS011;58975;51.978;8.472;2022-09-16T13:11:56;3.08;;;0.40;;
4857;SDS011;58975;51.978;8.472;2022-09-16T13:22:29;8.82;;;1.38;;
4857;SDS011;58975;51.978;8.472;2022-09-16T13:27:37;3.15;;;0.60;;
4857;SDS011;58975;51.978;8.472;2022-09-16T13:37:38;3.80;;;0.70;;
4857;SDS011;58975;51.978;8.472;2022-09-16T13:42:35;5.47;;;0.55;;
4857;SDS011;58975;51.978;8.472;2022-09-16T13:47:31;5.90;;;1.00;;
4857;SDS011;58975;51.978;8.472;2022-09-16T13:52:35;4.40;;;0.70;;
4857;SDS011;58975;51.978;8.472;2022-09-16T13:57:41;2.53;;;0.60;;
4857;SDS011;58975;51.978;8.472;2022-09-16T14:13:46;4.25;;;1.10;;
4857;SDS011;58975;51.978;8.472;2022-09-16T14:18:52;4.68;;;0.70;;
4857;SDS011;58975;51.978;8.472;2022-09-16T14:23:54;5.38;;;0.73;;
4857;SDS011;58975;51.978;8.472;2022-09-16T14:29:00;5.72;;;0.73;;
4857;SDS011;58975;51.978;8.472;2022-09-16T14:34:02;2.78;;;0.70;;
4857;SDS011;58975;51.978;8.472;2022-09-16T14:44:25;5.03;;;0.75;;
4857;SDS011;58975;51.978;8.472;2022-09-16T14:49:28;4.25;;;0.90;;
4857;SDS011;58975;51.978;8.472;2022-09-16T14:54:25;9.20;;;0.98;;
4857;SDS011;58975;51.978;8.472;2022-09-16T14:59:24;4.53;;;0.70;;
4857;SDS011;58975;51.978;8.472;2022-09-16T15:04:25;7.10;;;1.05;;
4857;SDS011;58975;51.978;8.472;2022-09-16T15:09:27;3.03;;;0.45;;
4857;SDS011;58975;51.978;8.472;2022-09-16T15:14:36;3.67;;;0.70;;
4857;SDS011;58975;51.978;8.472;2022-09-16T15:19:34;1.20;;;0.50;;
4857;SDS011;58975;51.978;8.472;2022-09-16T15:24:32;5.60;;;0.75;;
4857;SDS011;58975;51.978;8.472;2022-09-16T15:34:30;6.82;;;0.75;;
4857;SDS011;58975;51.978;8.472;2022-09-16T15:39:31;4.05;;;0.70;;
4857;SDS011;58975;51.978;8.472;2022-09-16T15:44:29;2.15;;;0.52;;
4857;SDS011;58975;51.978;8.472;2022-09-16T15:49:33;4.43;;;0.82;;
4857;SDS011;58975;51.978;8.472;2022-09-16T16:04:48;3.28;;;0.55;;
4857;SDS011;58975;51.978;8.472;2022-09-16T16:09:44;2.10;;;0.65;;
4857;SDS011;58975;51.978;8.472;2022-09-16T16:14:41;2.78;;;0.70;;
4857;SDS011;58975;51.978;8.472;2022-09-16T16:19:39;3.90;;;0.43;;
4857;SDS011;58975;51.978;8.472;2022-09-16T16:24:36;4.28;;;0.73;;
4857;SDS011;58975;51.978;8.472;2022-09-16T16:29:33;4.55;;;1.13;;
4857;SDS011;58975;51.978;8.472;2022-09-16T16:34:30;4.63;;;0.47;;
4857;SDS011;58975;51.978;8.472;2022-09-16T16:39:35;5.20;;;0.73;;
4857;SDS011;58975;51.978;8.472;2022-09-16T16:44:32;8.48;;;0.80;;
4857;SDS011;58975;51.978;8.472;2022-09-16T16:49:29;4.93;;;0.70;;
4857;SDS011;58975;51.978;8.472;2022-09-16T16:54:26;4.30;;;1.25;;
4857;SDS011;58975;51.978;8.472;2022-09-16T16:59:23;7.15;;;1.88;;
4857;SDS011;58975;51.978;8.472;2022-09-16T17:04:21;9.65;;;1.20;;
4857;SDS011;58975;51.978;8.472;2022-09-16T17:09:18;5.40;;;0.70;;
4857;SDS011;58975;51.978;8.472;2022-09-16T17:14:15;4.28;;;1.52;;
4857;SDS011;58975;51.978;8.472;2022-09-16T17:19:11;5.32;;;1.25;;
4857;SDS011;58975;51.978;8.472;2022-09-16T17:24:08;5.07;;;1.00;;
4857;SDS011;58975;51.978;8.472;2022-09-16T17:29:04;12.15;;;3.75;;
4857;SDS011;58975;51.978;8.472;2022-09-16T17:34:12;5.10;;;1.15;;
4857;SDS011;58975;51.978;8.472;2022-09-16T17:39:13;1.60;;;0.80;;
4857;SDS011;58975;51.978;8.472;2022-09-16T17:44:14;3.90;;;1.00;;
4857;SDS011;58975;51.978;8.472;2022-09-16T17:49:13;6.57;;;1.25;;
4857;SDS011;58975;51.978;8.472;2022-09-16T17:54:12;5.18;;;1.35;;
4857;SDS011;58975;51.978;8.472;2022-09-16T17:59:09;8.45;;;1.90;;
4857;SDS011;58975;51.978;8.472;2022-09-16T18:04:06;5.28;;;0.80;;
4857;SDS011;58975;51.978;8.472;2022-09-16T18:09:04;4.72;;;0.88;;
4857;SDS011;58975;51.978;8.472;2022-09-16T18:14:03;11.50;;;1.75;;
4857;SDS011;58975;51.978;8.472;2022-09-16T18:19:01;8.90;;;1.45;;
4857;SDS011;58975;51.978;8.472;2022-09-16T18:28:59;6.88;;;2.20;;
4857;SDS011;58975;51.978;8.472;2022-09-16T18:34:06;14.73;;;1.60;;
4857;SDS011;58975;51.978;8.472;2022-09-16T18:39:03;9.52;;;1.45;;
4857;SDS011;58975;51.978;8.472;2022-09-16T18:44:01;11.10;;;1.23;;
4857;SDS011;58975;51.978;8.472;2022-09-16T18:49:02;10.43;;;1.27;;
4857;SDS011;58975;51.978;8.472;2022-09-16T18:54:02;5.72;;;1.40;;
4857;SDS011;58975;51.978;8.472;2022-09-16T18:59:01;6.03;;;0.95;;
4857;SDS011;58975;51.978;8.472;2022-09-16T19:04:19;5.53;;;1.17;;
4857;SDS011;58975;51.978;8.472;2022-09-16T19:09:18;8.55;;;1.75;;
4857;SDS011;58975;51.978;8.472;2022-09-16T19:14:17;5.20;;;1.20;;
4857;SDS011;58975;51.978;8.472;2022-09-16T19:19:14;5.53;;;0.95;;
4857;SDS011;58975;51.978;8.472;2022-09-16T19:24:11;2.15;;;0.98;;
4857;SDS011;58975;51.978;8.472;2022-09-16T19:29:09;6.32;;;1.15;;
4857;SDS011;58975;51.978;8.472;2022-09-16T19:34:08;2.38;;;0.80;;
4857;SDS011;58975;51.978;8.472;2022-09-16T19:39:05;7.35;;;0.80;;
4857;SDS011;58975;51.978;8.472;2022-09-16T19:44:04;3.47;;;1.10;;
4857;SDS011;58975;51.978;8.472;2022-09-16T19:49:02;7.53;;;0.90;;
4857;SDS011;58975;51.978;8.472;2022-09-16T19:54:00;7.72;;;1.35;;
4857;SDS011;58975;51.978;8.472;2022-09-16T19:58:57;3.53;;;0.77;;
4857;SDS011;58975;51.978;8.472;2022-09-16T20:03:53;6.15;;;1.50;;
4857;SDS011;58975;51.978;8.472;2022-09-16T20:08:54;10.93;;;1.20;;
4857;SDS011;58975;51.978;8.472;2022-09-16T20:13:56;8.15;;;1.15;;
4857;SDS011;58975;51.978;8.472;2022-09-16T20:18:54;5.07;;;1.05;;
4857;SDS011;58975;51.978;8.472;2022-09-16T20:23:50;7.85;;;1.08;;
4857;SDS011;58975;51.978;8.472;2022-09-16T20:28:49;6.53;;;0.75;;
4857;SDS011;58975;51.978;8.472;2022-09-16T20:33:48;1.63;;;0.80;;
4857;SDS011;58975;51.978;8.472;2022-09-16T20:38:45;7.40;;;0.73;;
4857;SDS011;58975;51.978;8.472;2022-09-16T20:43:42;4.78;;;1.00;;
4857;SDS011;58975;51.978;8.472;2022-09-16T20:48:39;5.75;;;1.70;;
4857;SDS011;58975;51.978;8.472;2022-09-16T20:53:37;3.40;;;0.80;;
4857;SDS011;58975;51.978;8.472;2022-09-16T20:58:35;2.75;;;0.73;;
4857;SDS011;58975;51.978;8.472;2022-09-16T21:03:31;5.88;;;0.98;;
4857;SDS011;58975;51.978;8.472;2022-09-16T21:08:28;9.02;;;1.55;;
4857;SDS011;58975;51.978;8.472;2022-09-16T21:13:29;10.05;;;1.75;;
4857;SDS011;58975;51.978;8.472;2022-09-16T21:18:26;6.72;;;0.85;;
4857;SDS011;58975;51.978;8.472;2022-09-16T21:23:23;11.23;;;2.20;;
4857;SDS011;58975;51.978;8.472;2022-09-16T21:33:18;11.68;;;1.65;;
4857;SDS011;58975;51.978;8.472;2022-09-16T21:38:14;8.10;;;1.75;;
4857;SDS011;58975;51.978;8.472;2022-09-16T21:43:11;5.30;;;1.70;;
4857;SDS011;58975;51.978;8.472;2022-09-16T21:48:07;7.28;;;1.17;;
4857;SDS011;58975;51.978;8.472;2022-09-16T21:53:04;9.20;;;1.98;;
4857;SDS011;58975;51.978;8.472;2022-09-16T21:58:00;9.13;;;2.13;;
4857;SDS011;58975;51.978;8.472;2022-09-16T22:02:56;6.63;;;1.58;;
4857;SDS011;58975;51.978;8.472;2022-09-16T22:07:53;4.53;;;1.00;;
4857;SDS011;58975;51.978;8.472;2022-09-16T22:12:49;4.88;;;1.17;;
4857;SDS011;58975;51.978;8.472;2022-09-16T22:17:45;14.88;;;2.30;;
4857;SDS011;58975;51.978;8.472;2022-09-16T22:22:46;8.82;;;1.60;;
4857;SDS011;58975;51.978;8.472;2022-09-16T22:27:43;11.27;;;1.80;;
4857;SDS011;58975;51.978;8.472;2022-09-16T22:32:39;5.15;;;1.40;;
4857;SDS011;58975;51.978;8.472;2022-09-16T22:37:36;14.65;;;2.65;;
4857;SDS011;58975;51.978;8.472;2022-09-16T22:42:32;2.35;;;1.08;;
4857;SDS011;58975;51.978;8.472;2022-09-16T22:47:29;7.65;;;1.67;;
4857;SDS011;58975;51.978;8.472;2022-09-16T22:52:25;5.00;;;1.13;;
4857;SDS011;58975;51.978;8.472;2022-09-16T22:57:24;7.15;;;1.45;;
4857;SDS011;58975;51.978;8.472;2022-09-16T23:02:20;6.00;;;1.10;;
4857;SDS011;58975;51.978;8.472;2022-09-16T23:07:17;7.55;;;1.73;;
4857;SDS011;58975;51.978;8.472;2022-09-16T23:12:13;6.40;;;1.45;;
4857;SDS011;58975;51.978;8.472;2022-09-16T23:17:12;11.00;;;2.05;;
4857;SDS011;58975;51.978;8.472;2022-09-16T23:22:08;8.07;;;1.65;;
4857;SDS011;58975;51.978;8.472;2022-09-16T23:27:04;7.35;;;1.55;;
4857;SDS011;58975;51.978;8.472;2022-09-16T23:32:01;4.10;;;1.30;;
4857;SDS011;58975;51.978;8.472;2022-09-16T23:36:59;4.60;;;1.55;;
4857;SDS011;58975;51.978;8.472;2022-09-16T23:41:55;14.85;;;2.00;;
4857;SDS011;58975;51.978;8.472;2022-09-16T23:46:51;6.72;;;1.80;;
4857;SDS011;58975;51.978;8.472;2022-09-16T23:51:48;9.95;;;2.88;;
4857;SDS011;58975;51.978;8.472;2022-09-16T23:56:44;7.22;;;1.80;;
